Airport View

Enter AWOS ICAO identifier for current METAR.

ex. KFNL

KM40 121105Z AUTO 36013G21KT 10SM OVC015 12/06 A3035 RMK AO2

12 Nov 2019 11:12

Frequency: 118.475

Phone: 662-369-3498

Other Area AWOS: KCBM - KGTR - KTUP - KSTF

TAF KCBM 120900Z 1209/1315 35015G25KT 9999 OVC010 650102 510043 QNH3023INS BECMG 1210/1211 35015G25KT 9999 BKN015 510053 QNH3033INS BECMG 1214/1215 36012G18KT 9999 SCT018 QNH3033INS BECMG 1223/1224 36006KT 9999 SKC QNH3033INS TX02/1221Z TNM05/1308Z